x

Portland 12 Nm Southeast Of Portland,me (44007) Wave Buoy

6:50am - Tue 24th May 2016 All times are EDT. -4 hours from GMT.

  • Sig Wave height 4.3ft
  • Swell Direction
  • Peak Period 9s
  • Average Period 7s
  • Wind
    13mph, 16mph gusts
  • Sea Temp 49°f
  • 空気 Temp 51°f
  • Sea Pressure 1014.3mb
  • Portland 12 Nm Southeast Of Portland,me
  • Portland 12 Nm Southeast Of Portland,me

More Historic Weather Station data

Upgrade to MSW Pro to gain access to the past 30 days of data for over 8000 Wavebouys and Weather Stations around the globe.

Join Pro

Comparision Forecast

View Surf forecast
   
Tue 05/24 6:50am 4.5ft 9s 7s 13 16 mph 1014.3mb 49f 51f
5:50am 3.5ft 10s 7s 13
mph
1014.2mb 49f 51f
4:50am 3ft 9s 7s 16 18 mph 1013.9mb 50f 52f
3:50am 3.5ft 10s 7s 11 13 mph 1013.3mb 50f 52f
2:50am 3ft 10s 7s 9 11 mph 1013.6mb 51f 51f
1:50am 3.5ft 11s 8s 7
mph
1014mb 51f 52f
12:50am 4ft 10s 8s 11
mph
1013.8mb 52f 52f
Mon 05/23 11:50pm 4.5ft 8s 8s 7 9 mph 1014.1mb 52f 52f
10:50pm 4.5ft 8s 8s 4 7 mph 1014.1mb 52f 53f
9:50pm 4.5ft 9s 8s 4
mph
1014mb 52f 53f
8:50pm 5ft 11s 8s 2
mph
1013.5mb 53f 53f
6:50pm 4.5ft 8s 8s 11 13 mph 1012.6mb 54f 56f
5:50pm 4.5ft 10s 8s 9 11 mph 1011.9mb 55f 57f
4:50pm 4ft 10s 8s 9
mph
1011.5mb 55f 57f
3:50pm 4.5ft 10s 8s 9
mph
1011.5mb 56f 59f
2:50pm 4ft 10s 8s 7 9 mph 1011.5mb 57f 60f
1:50pm 4ft 10s 8s 7
mph
1011.8mb 55f 60f
12:50pm 4ft 8s 8s 7 9 mph 1012.3mb 54f 62f
11:50am 4.5ft 8s 7s 2 4 mph 1012.6mb 50f 61f
10:50am 5ft 10s 8s 2 4 mph 1012.7mb 51f 59f
9:50am 5ft 8s 8s 4 7 mph 1012.8mb 51f 53f
8:50am 5ft 10s 8s 4 7 mph 1013.2mb 50f 52f
7:50am 5ft 9s 8s 4 7 mph 1013.4mb 50f 51f
6:50am 4.5ft 10s  -  4 7 mph 1013.1mb 49f 50f
5:50am 4.5ft 10s 8s 2
mph
1012.9mb 49f 50f
4:50am 4ft 10s 7s 4 7 mph 1011.9mb 50f 50f
3:50am 4ft 10s 7s 4 7 mph 1011.7mb 50f 51f
2:50am 3.5ft 9s 7s 9 11 mph 1011.6mb 51f 51f
1:50am 3.5ft 10s 6s  -  2 mph 1012mb 51f 51f
12:50am 3.5ft 10s 7s 4 7 mph 1012.1mb 51f 52f
Sun 05/22 11:50pm 3.5ft 9s 7s 7
mph
1011.9mb 51f 51f
10:50pm 4ft 9s 7s 7
mph
1011.7mb 51f 52f
9:50pm 3.5ft 10s 7s 4
mph
1011.9mb 51f 52f
8:50pm 2.5ft 10s 7s 2 4 mph 1011.5mb 52f 52f
7:50pm 2.5ft 11s 7s 4
mph
1011.5mb 52f 53f
6:50pm 1.6ft 8s 7s 2 4 mph 1010.7mb 52f 53f
5:50pm 1.3ft 9s 6s 2
mph
1010.3mb 53f 54f
4:50pm 1.3ft 9s 6s 2 4 mph 1010.1mb 53f 54f
3:50pm 1.3ft 10s 6s 2
mph
1010.4mb 52f 54f
2:50pm 1.3ft 9s 6s 2
mph
1010.7mb 53f 53f
1:50pm 1.6ft 9s 6s 4
mph
1011mb 51f 53f
12:50pm 1.6ft 8s 6s 2 4 mph 1011.1mb 50f 52f
11:50am 1.6ft 7s 6s 9
mph
1011.2mb 50f 51f
10:50am 2ft 7s 6s 7
mph
1011.2mb 51f 51f
9:50am 2ft 7s 5s 4 7 mph 1011.2mb 51f 51f
8:50am 2ft 8s 5s 4 7 mph 1011mb 50f 52f
7:50am 2ft 8s 5s 2
mph
1011.1mb 49f 51f
6:50am 1.6ft 8s 4s 4
mph
1010.7mb 49f 51f
5:50am 1.6ft 8s 4s 9 11 mph 1010.8mb 49f 50f
4:50am 1.6ft 9s 4s 7 9 mph 1010.3mb 49f 51f
3:50am 2ft 9s 4s 11 13 mph 1010.7mb 49f 51f
2:50am 2.5ft 4s 4s 11
mph
1011.1mb 49f 51f
1:50am 2.5ft 8s 4s 13 16 mph 1011.5mb 49f 52f
12:50am 2.5ft 8s 5s 13
mph
1012mb 50f 52f
Sat 05/21 11:50pm 2.5ft 5s 4s 16 18 mph 1012.4mb 50f 53f
10:50pm 3ft 5s 4s 16 18 mph 1013.1mb 50f 53f
9:50pm 3ft 8s 4s 18 20 mph 1013.5mb 50f 53f
8:50pm 3ft 4s 4s 16 18 mph 1013.8mb 50f 53f
7:50pm 3.5ft 4s 4s 16 20 mph 1013.7mb 50f 54f
6:50pm 3ft 4s 4s 18 22 mph 1014mb 49f 54f
5:50pm 2.5ft 9s 4s 20 22 mph 1014.5mb 50f 55f
4:50pm 2.5ft 8s 4s 20 22 mph 1015.1mb 49f 55f
3:50pm 2.5ft 9s 4s 18
mph
1015.4mb 49f 55f
2:50pm 2ft 9s 4s 16 18 mph 1016.2mb 49f 54f
1:50pm 2.5ft 9s 5s 13 16 mph 1016.7mb 50f 55f
12:50pm 2ft 8s 5s 13 16 mph 1017.4mb 50f 55f
11:50am 2.5ft 8s 6s 11 13 mph 1017.9mb 50f 53f
10:50am 2.5ft 8s 7s 9
mph
1018.5mb 50f 52f
9:50am 2.5ft 8s 6s 9
mph
1019.1mb 49f 52f
8:50am 2.5ft 8s 7s 4 7 mph 1019.6mb 49f 51f
7:50am 2.5ft 8s 6s 7
mph
1019.9mb 48f 51f
6:50am 3ft 8s 7s 7
mph
1019.9mb 48f 52f
5:50am 2.5ft 8s 6s 4
mph
1019.8mb 48f 53f
4:50am 2ft 9s 6s 7
mph
1019.8mb 48f 53f
3:50am 2.5ft 8s 6s 7 9 mph 1019.9mb 48f 54f
2:50am 2.5ft 9s 6s 9
mph
1020.1mb 48f 54f
1:50am 2.5ft 8s 6s 11
mph
1020.3mb 48f 54f
12:50am 2.5ft 7s 5s 7 9 mph 1020.3mb 49f 52f
Fri 05/20 11:50pm 2.5ft 8s 5s 9
mph
1020.2mb 49f 52f
10:50pm 2.5ft 8s 5s 13 16 mph 1020.1mb 49f 54f
9:50pm 2.5ft 8s 5s 13 16 mph 1020.3mb 49f 53f
8:50pm 2.5ft 8s 5s 13 16 mph 1020mb 49f 53f
6:50pm 2ft 7s 5s 13 16 mph 1020.3mb 49f 54f
5:50pm 1.6ft 8s 5s 11 13 mph 1020.2mb 49f 55f
4:50pm 1.6ft 7s 5s 13
mph
1020.3mb 49f 55f
3:50pm 2ft 7s 5s 11 13 mph 1020.4mb 49f 55f
2:50pm 2ft 7s 6s 13 16 mph 1021mb 50f 54f
1:50pm 1.6ft 7s 6s 11 13 mph 1021.3mb 51f 55f
12:50pm 1.6ft 7s 6s 9
mph
1021.5mb 51f 55f
11:50am 1.6ft 7s 6s 7 9 mph 1021.8mb 51f 55f